createdAt,value
2022-12-15T00:01:49.268Z,100695.34
2022-12-15T00:04:34.235Z,100691.94
2022-12-15T00:07:18.940Z,100695.31
2022-12-15T00:10:03.773Z,100699.78
2022-12-15T00:12:48.528Z,100705.00
2022-12-15T00:15:33.361Z,100700.78
2022-12-15T00:18:23.641Z,100703.38
2022-12-15T00:21:08.307Z,100697.59
2022-12-15T00:23:53.229Z,100700.19
2022-12-15T00:26:38.673Z,100706.06
2022-12-15T00:29:24.030Z,100704.50
2022-12-15T00:32:09.024Z,100701.03
2022-12-15T00:34:53.798Z,100704.50
2022-12-15T00:37:38.676Z,100705.34
2022-12-15T00:40:06.882Z,100711.50
2022-12-15T00:42:33.347Z,100717.91
2022-12-15T00:44:59.852Z,100715.44
2022-12-15T00:47:26.290Z,100724.19
2022-12-15T00:50:11.314Z,100728.41
2022-12-15T00:52:56.607Z,100721.84
2022-12-15T00:55:41.538Z,100720.72
2022-12-15T00:58:26.455Z,100709.06
2022-12-15T01:01:11.389Z,100709.00
2022-12-15T01:03:56.803Z,100720.38
2022-12-15T01:06:42.249Z,100716.59
2022-12-15T01:09:30.989Z,100718.44
2022-12-15T01:12:15.908Z,100720.75
2022-12-15T01:15:00.607Z,100737.19
2022-12-15T01:17:45.556Z,100739.88
2022-12-15T01:20:18.278Z,100739.94
2022-12-15T01:22:46.589Z,100743.91
2022-12-15T01:25:14.127Z,100744.72
2022-12-15T01:27:41.105Z,100737.22
2022-12-15T01:30:10.752Z,100734.34
2022-12-15T01:32:41.415Z,100744.94
2022-12-15T01:35:11.629Z,100745.75
2022-12-15T01:37:38.537Z,100748.09
2022-12-15T01:40:25.657Z,100753.44
2022-12-15T01:42:52.380Z,100746.28
2022-12-15T01:45:24.684Z,100745.78
2022-12-15T01:47:53.532Z,100756.09
2022-12-15T01:50:20.099Z,100748.66
2022-12-15T01:52:49.702Z,100752.94
2022-12-15T01:55:19.357Z,100759.88
2022-12-15T01:57:48.409Z,100766.50
2022-12-15T02:00:15.500Z,100768.53
2022-12-15T02:02:42.341Z,100768.16
2022-12-15T02:05:10.331Z,100762.56
2022-12-15T02:07:36.940Z,100779.50
2022-12-15T02:10:07.377Z,100766.75
2022-12-15T02:12:48.746Z,100780.56
2022-12-15T02:15:56.596Z,100777.06
2022-12-15T02:18:32.109Z,100779.69
2022-12-15T02:21:27.474Z,100774.91
2022-12-15T02:23:56.860Z,100771.66
2022-12-15T02:26:38.537Z,100784.28
2022-12-15T02:29:36.021Z,100774.31
2022-12-15T02:32:14.955Z,100780.91
2022-12-15T02:34:41.429Z,100780.75
2022-12-15T02:37:14.493Z,100784.19
2022-12-15T02:39:40.957Z,100776.31
2022-12-15T02:42:10.410Z,100768.59
2022-12-15T02:44:55.473Z,100773.44
2022-12-15T02:47:33.058Z,100771.38
2022-12-15T02:50:30.282Z,100766.09
2022-12-15T02:53:09.293Z,100767.78
2022-12-15T02:55:50.144Z,100769.09
2022-12-15T02:58:48.417Z,100771.47
2022-12-15T03:01:40.251Z,100771.94
2022-12-15T03:04:09.596Z,100777.81
2022-12-15T03:06:36.124Z,100775.00
2022-12-15T03:09:02.606Z,100787.84
2022-12-15T03:11:29.262Z,100786.31
2022-12-15T03:13:55.972Z,100791.63
2022-12-15T03:16:22.500Z,100789.22
2022-12-15T03:18:49.239Z,100797.94
2022-12-15T03:21:15.723Z,100802.38
2022-12-15T03:23:42.190Z,100803.44
2022-12-15T03:26:08.688Z,100795.69
2022-12-15T03:28:35.182Z,100807.13
2022-12-15T03:31:01.692Z,100813.16
2022-12-15T03:33:28.540Z,100822.22
2022-12-15T03:35:55.685Z,100824.47
2022-12-15T03:38:22.176Z,100822.88
2022-12-15T03:40:48.679Z,100816.50
2022-12-15T03:43:15.141Z,100822.69
2022-12-15T03:45:41.613Z,100805.31
2022-12-15T03:48:08.184Z,100809.13
2022-12-15T03:50:35.581Z,100809.53
2022-12-15T03:53:03.950Z,100812.47
2022-12-15T03:55:31.039Z,100809.28
2022-12-15T03:57:59.181Z,100806.88
2022-12-15T04:00:26.753Z,100817.59
2022-12-15T04:02:53.959Z,100817.34
2022-12-15T04:05:29.957Z,100819.63
2022-12-15T04:07:58.104Z,100816.25
2022-12-15T04:10:31.871Z,100809.03
2022-12-15T04:13:03.308Z,100805.47
2022-12-15T04:15:30.096Z,100809.81
2022-12-15T04:17:56.827Z,100816.28
2022-12-15T04:20:23.699Z,100820.44
2022-12-15T04:22:51.277Z,100817.69
2022-12-15T04:25:39.385Z,100810.78
2022-12-15T04:28:25.248Z,100808.59
2022-12-15T04:31:15.856Z,100818.03
2022-12-15T04:34:05.127Z,100818.97
2022-12-15T04:36:50.371Z,100813.25
2022-12-15T04:39:35.592Z,100817.47
2022-12-15T04:42:20.924Z,100814.44
2022-12-15T04:45:07.728Z,100807.50
2022-12-15T04:47:52.999Z,100820.19
2022-12-15T04:50:37.734Z,100829.41
2022-12-15T04:53:33.982Z,100818.09
2022-12-15T04:56:19.797Z,100830.47
2022-12-15T04:59:05.633Z,100825.03
2022-12-15T05:01:51.564Z,100831.00
2022-12-15T05:04:37.325Z,100827.47
2022-12-15T05:07:22.510Z,100832.75
2022-12-15T05:10:14.393Z,100833.75
2022-12-15T05:12:59.958Z,100834.06
2022-12-15T05:15:44.891Z,100830.78
2022-12-15T05:18:29.698Z,100827.91
2022-12-15T05:21:16.570Z,100826.66
2022-12-15T05:24:01.892Z,100821.81
2022-12-15T05:26:52.303Z,100826.56
2022-12-15T05:29:38.093Z,100840.09
2022-12-15T05:32:04.595Z,100825.59
2022-12-15T05:34:33.178Z,100832.25
2022-12-15T05:37:01.816Z,100842.03
2022-12-15T05:39:28.638Z,100842.31
2022-12-15T05:41:56.637Z,100837.75
2022-12-15T05:44:24.400Z,100843.59
2022-12-15T05:46:50.908Z,100845.09
2022-12-15T05:49:18.364Z,100851.09
2022-12-15T05:51:47.168Z,100848.16
2022-12-15T05:54:17.407Z,100859.41
2022-12-15T05:56:45.020Z,100850.94
2022-12-15T05:59:11.444Z,100853.41
2022-12-15T06:01:37.932Z,100854.91
2022-12-15T06:04:04.911Z,100856.03
2022-12-15T06:06:31.485Z,100860.84
2022-12-15T06:08:58.209Z,100867.38
2022-12-15T06:11:24.703Z,100871.56
2022-12-15T06:13:51.215Z,100875.25
2022-12-15T06:16:22.596Z,100866.44
2022-12-15T06:18:52.969Z,100867.25
2022-12-15T06:21:27.159Z,100860.59
2022-12-15T06:23:55.512Z,100873.66
2022-12-15T06:26:28.944Z,100878.38
2022-12-15T06:28:57.747Z,100875.25
2022-12-15T06:31:25.751Z,100877.16
2022-12-15T06:33:59.166Z,100871.44
2022-12-15T06:36:28.569Z,100869.09
2022-12-15T06:38:58.132Z,100868.34
2022-12-15T06:41:24.608Z,100879.47
2022-12-15T06:43:53.265Z,100875.63
2022-12-15T06:46:20.545Z,100875.56
2022-12-15T06:48:47.960Z,100871.56
2022-12-15T06:51:17.363Z,100869.28
2022-12-15T06:53:53.638Z,100865.09
2022-12-15T06:56:27.218Z,100876.47
2022-12-15T06:58:59.385Z,100891.81
2022-12-15T07:01:25.986Z,100893.63
2022-12-15T07:03:53.650Z,100894.34
2022-12-15T07:06:20.567Z,100889.31
2022-12-15T07:08:53.203Z,100893.41
2022-12-15T07:11:21.595Z,100891.50
2022-12-15T07:13:52.217Z,100890.22
2022-12-15T07:16:20.571Z,100893.41
2022-12-15T07:18:47.153Z,100895.31
2022-12-15T07:21:14.037Z,100893.81
2022-12-15T07:23:54.108Z,100888.75
2022-12-15T07:26:22.276Z,100896.75
2022-12-15T07:28:48.752Z,100898.91
2022-12-15T07:31:15.645Z,100906.66
2022-12-15T07:33:42.453Z,100910.19
2022-12-15T07:36:09.314Z,100915.47
2022-12-15T07:38:36.238Z,100915.66
2022-12-15T07:41:04.917Z,100915.41
2022-12-15T07:43:32.183Z,100914.06
2022-12-15T07:45:59.496Z,100918.56
2022-12-15T07:48:27.146Z,100915.72
2022-12-15T07:51:02.923Z,100923.72
2022-12-15T07:53:33.905Z,100916.59
2022-12-15T07:56:09.646Z,100914.25
2022-12-15T07:58:37.726Z,100913.03
2022-12-15T08:01:07.185Z,100908.31
2022-12-15T08:03:35.047Z,100912.34
2022-12-15T08:06:06.327Z,100923.06
2022-12-15T08:08:34.265Z,100922.88
2022-12-15T08:11:06.168Z,100931.88
2022-12-15T08:16:21.223Z,100937.75
2022-12-15T08:18:48.708Z,100932.72
2022-12-15T08:21:15.187Z,100943.63
2022-12-15T08:23:41.783Z,100941.00
2022-12-15T08:26:11.505Z,100940.75
2022-12-15T08:28:39.615Z,100942.38
2022-12-15T08:31:08.794Z,100947.22
2022-12-15T08:33:35.621Z,100958.72
2022-12-15T08:36:05.440Z,100955.31
2022-12-15T08:38:32.829Z,100962.00
2022-12-15T08:41:07.333Z,100957.09
2022-12-15T08:43:33.994Z,100959.59
2022-12-15T08:46:00.991Z,100950.53
2022-12-15T08:48:27.493Z,100961.34
2022-12-15T08:50:56.182Z,100945.28
2022-12-15T08:53:31.147Z,100952.50
2022-12-15T08:56:06.856Z,100959.34
2022-12-15T08:58:33.953Z,100955.91
2022-12-15T09:01:07.158Z,100964.50
2022-12-15T09:03:36.170Z,100966.97
2022-12-15T09:06:12.192Z,100966.50
2022-12-15T09:08:38.657Z,100974.22
2022-12-15T09:11:05.726Z,100968.41
2022-12-15T09:13:32.825Z,100977.97
2022-12-15T09:16:10.739Z,100976.16
2022-12-15T09:18:37.808Z,100978.38
2022-12-15T09:21:06.586Z,100966.91
2022-12-15T09:23:34.233Z,100964.31
2022-12-15T09:26:03.265Z,100971.00
2022-12-15T09:28:30.038Z,100969.66
2022-12-15T09:31:15.228Z,100968.38
2022-12-15T09:33:44.062Z,100976.88
2022-12-15T09:36:13.111Z,100987.03
2022-12-15T09:38:41.515Z,100996.38
2022-12-15T09:41:13.661Z,100999.59
2022-12-15T09:44:00.246Z,100994.28
2022-12-15T09:46:30.910Z,101001.53
2022-12-15T09:49:01.961Z,101005.78
2022-12-15T09:51:43.536Z,100996.50
2022-12-15T09:54:11.310Z,101009.03
2022-12-15T09:56:44.249Z,101007.44
2022-12-15T09:59:37.586Z,101013.59
2022-12-15T10:02:39.046Z,101010.38
2022-12-15T10:05:14.258Z,101007.72
2022-12-15T10:07:46.255Z,101008.56
2022-12-15T10:10:23.348Z,101010.69
2022-12-15T10:13:01.711Z,101005.63
2022-12-15T10:15:36.200Z,101015.75
2022-12-15T10:18:23.407Z,101013.88
2022-12-15T10:20:53.468Z,100993.91
2022-12-15T10:23:20.649Z,101008.56
2022-12-15T10:26:13.766Z,101006.94
2022-12-15T10:28:59.891Z,101000.53
2022-12-15T10:31:41.237Z,101005.31
2022-12-15T10:34:28.337Z,101006.91
2022-12-15T10:36:57.142Z,101006.59
2022-12-15T10:39:24.177Z,101018.34
2022-12-15T10:42:11.131Z,101014.34
2022-12-15T10:44:40.238Z,101021.84
2022-12-15T10:47:39.997Z,101020.25
2022-12-15T10:50:25.071Z,101027.97
2022-12-15T10:52:51.877Z,101019.66
2022-12-15T10:55:49.797Z,101012.38
2022-12-15T10:58:21.468Z,101006.25
2022-12-15T11:00:50.985Z,101010.28
2022-12-15T11:03:26.860Z,101011.94
2022-12-15T11:05:56.268Z,100998.59
2022-12-15T11:08:24.676Z,101006.34
2022-12-15T11:11:11.384Z,100993.72
2022-12-15T11:13:38.896Z,100987.75
2022-12-15T11:16:19.433Z,100989.34
2022-12-15T11:19:02.866Z,100997.88
2022-12-15T11:21:41.946Z,101002.06
2022-12-15T11:24:14.489Z,100995.09
2022-12-15T11:26:59.019Z,100997.16
2022-12-15T11:29:41.548Z,100996.34
2022-12-15T11:32:11.862Z,100987.22
2022-12-15T11:34:47.699Z,100988.28
2022-12-15T11:40:26.504Z,100986.50
2022-12-15T11:43:11.714Z,100990.22
2022-12-15T11:46:17.608Z,100987.13
2022-12-15T11:49:06.199Z,100986.69
2022-12-15T11:52:05.949Z,100973.97
2022-12-15T11:54:45.147Z,100979.78
2022-12-15T11:57:45.182Z,100989.84
2022-12-15T12:00:21.893Z,100987.88
2022-12-15T12:03:25.260Z,100988.53
2022-12-15T12:06:03.002Z,100982.19
2022-12-15T12:08:38.229Z,100975.09
2022-12-15T12:11:13.514Z,100977.31
2022-12-15T12:14:09.659Z,100977.25
2022-12-15T12:16:57.317Z,100979.00
2022-12-15T12:19:26.716Z,100976.50
2022-12-15T12:21:59.564Z,100981.81
2022-12-15T12:24:28.750Z,100980.09
2022-12-15T12:27:07.470Z,100973.94
2022-12-15T12:29:52.922Z,100977.28
2022-12-15T12:32:50.600Z,100968.38
2022-12-15T12:35:33.356Z,100970.69
2022-12-15T12:38:04.701Z,100962.91
2022-12-15T12:40:40.133Z,100961.22
2022-12-15T12:43:14.658Z,100955.72
2022-12-15T12:45:55.346Z,100960.72
2022-12-15T12:48:29.590Z,100961.03
2022-12-15T12:51:22.037Z,100955.38
2022-12-15T12:53:50.424Z,100950.50
2022-12-15T12:56:34.362Z,100948.63
2022-12-15T12:59:07.682Z,100947.28
2022-12-15T13:01:37.818Z,100944.84
2022-12-15T13:04:13.757Z,100936.09
2022-12-15T13:06:40.138Z,100939.88
2022-12-15T13:09:40.039Z,100936.38
2022-12-15T13:15:31.350Z,100922.78
2022-12-15T13:18:01.011Z,100918.63
2022-12-15T13:20:32.719Z,100919.50
2022-12-15T13:23:24.013Z,100920.88
2022-12-15T13:25:56.617Z,100915.22
2022-12-15T13:28:44.439Z,100913.00
2022-12-15T13:34:18.263Z,100912.72
2022-12-15T13:36:54.271Z,100906.19
2022-12-15T13:39:27.476Z,100908.66
2022-12-15T13:44:52.569Z,100905.44
2022-12-15T13:47:18.990Z,100901.78
2022-12-15T13:50:02.233Z,100898.72
2022-12-15T13:53:17.860Z,100904.00
2022-12-15T13:55:40.140Z,100902.91
2022-12-15T13:58:09.756Z,100903.31
2022-12-15T14:00:38.863Z,100908.88
2022-12-15T14:03:06.914Z,100903.50
2022-12-15T14:05:33.717Z,100899.03
2022-12-15T14:08:02.888Z,100902.53
2022-12-15T14:10:57.211Z,100904.88
2022-12-15T14:13:27.296Z,100902.09
2022-12-15T14:16:03.037Z,100899.53
2022-12-15T14:18:32.523Z,100898.81
2022-12-15T14:21:01.047Z,100896.53
2022-12-15T14:23:38.579Z,100897.22
2022-12-15T14:26:08.013Z,100892.28
2022-12-15T14:28:36.896Z,100891.06
2022-12-15T14:31:07.557Z,100892.06
2022-12-15T14:33:38.741Z,100892.53
2022-12-15T14:36:09.579Z,100895.63
2022-12-15T14:39:00.332Z,100895.16
2022-12-15T14:41:40.572Z,100885.00
2022-12-15T14:44:37.563Z,100883.72
2022-12-15T14:47:08.484Z,100878.56
2022-12-15T14:49:45.172Z,100874.56
2022-12-15T14:52:32.747Z,100874.72
2022-12-15T14:55:01.938Z,100865.38
2022-12-15T14:57:41.150Z,100865.16
2022-12-15T15:00:30.889Z,100864.22
2022-12-15T15:03:07.444Z,100914.44
2022-12-15T15:03:13.322Z,100978.19
2022-12-15T15:03:16.234Z,100930.25
2022-12-15T15:03:19.791Z,100866.78
2022-12-15T15:05:55.556Z,100860.38
2022-12-15T15:08:33.464Z,100870.63
2022-12-15T15:11:29.933Z,100865.03
2022-12-15T15:14:00.357Z,100878.88
2022-12-15T15:16:27.479Z,100871.06
2022-12-15T15:18:56.181Z,100872.47
2022-12-15T15:21:28.638Z,100872.72
2022-12-15T15:24:03.802Z,100867.97
2022-12-15T15:26:31.125Z,100875.72
2022-12-15T15:28:57.791Z,100878.00
2022-12-15T15:31:28.568Z,100875.75
2022-12-15T15:33:57.921Z,100873.59
2022-12-15T15:36:30.058Z,100877.56
2022-12-15T15:38:56.741Z,100861.38
2022-12-15T15:41:33.306Z,100874.75
2022-12-15T15:44:01.650Z,100865.63
2022-12-15T15:46:31.103Z,100874.16
2022-12-15T15:49:01.527Z,100871.69
2022-12-15T15:51:30.172Z,100878.75
2022-12-15T15:54:00.480Z,100876.72
2022-12-15T15:56:28.441Z,100880.31
2022-12-15T15:58:54.927Z,100871.19
2022-12-15T16:01:21.707Z,100879.00
2022-12-15T16:03:48.380Z,100868.09
2022-12-15T16:06:21.031Z,100873.16
2022-12-15T16:08:52.095Z,100876.63
2022-12-15T16:11:18.734Z,100866.22
2022-12-15T16:13:45.207Z,100875.34
2022-12-15T16:16:23.958Z,100868.66
2022-12-15T16:18:50.527Z,100872.38
2022-12-15T16:21:26.257Z,100876.69
2022-12-15T16:23:53.915Z,100874.13
2022-12-15T16:26:29.878Z,100886.22
2022-12-15T16:28:56.649Z,100881.97
2022-12-15T16:31:40.623Z,100881.97
2022-12-15T16:34:07.605Z,100878.03
2022-12-15T16:36:35.076Z,100875.38
2022-12-15T16:39:01.931Z,100873.31
2022-12-15T16:41:28.360Z,100871.78
2022-12-15T16:43:54.859Z,100873.88
2022-12-15T16:46:21.380Z,100868.88
2022-12-15T16:48:48.283Z,100870.75
2022-12-15T16:51:31.256Z,100869.44
2022-12-15T16:53:57.933Z,100878.63
2022-12-15T16:56:24.463Z,100870.09
2022-12-15T16:59:15.623Z,100872.28
2022-12-15T17:01:40.694Z,100862.78
2022-12-15T17:04:07.341Z,100870.84
2022-12-15T17:06:34.048Z,100870.63
2022-12-15T17:09:01.228Z,100879.16
2022-12-15T17:11:28.997Z,100891.09
2022-12-15T17:13:57.601Z,100878.63
2022-12-15T17:16:28.805Z,100894.50
2022-12-15T17:18:55.572Z,100898.09
2022-12-15T17:21:47.002Z,100896.28
2022-12-15T17:24:17.887Z,100900.09
2022-12-15T17:26:44.796Z,100904.66
2022-12-15T17:29:17.996Z,100902.38
2022-12-15T17:31:44.595Z,100900.56
2022-12-15T17:34:22.472Z,100908.91
2022-12-15T17:36:49.037Z,100908.56
2022-12-15T17:39:18.061Z,100906.91
2022-12-15T17:42:01.777Z,100903.94
2022-12-15T17:44:38.325Z,100903.41
2022-12-15T17:47:08.115Z,100922.13
2022-12-15T17:49:37.784Z,100911.38
2022-12-15T17:52:21.447Z,100914.34
2022-12-15T17:54:47.908Z,100908.50
2022-12-15T17:57:14.389Z,100910.16
2022-12-15T17:59:40.866Z,100923.47
2022-12-15T18:02:12.342Z,100918.94
2022-12-15T18:04:39.337Z,100917.56
2022-12-15T18:07:06.479Z,100922.69
2022-12-15T18:09:32.920Z,100918.19
2022-12-15T18:11:59.418Z,100921.91
2022-12-15T18:14:27.621Z,100916.84
2022-12-15T18:16:54.106Z,100920.59
2022-12-15T18:19:20.570Z,100927.25
2022-12-15T18:21:47.101Z,100923.50
2022-12-15T18:24:16.971Z,100931.72
2022-12-15T18:26:43.479Z,100929.38
2022-12-15T18:29:17.683Z,100929.13
2022-12-15T18:31:46.938Z,100936.09
2022-12-15T18:34:16.476Z,100936.66
2022-12-15T18:36:43.139Z,100937.16
2022-12-15T18:39:18.782Z,100933.97
2022-12-15T18:41:46.229Z,100946.47
2022-12-15T18:44:22.158Z,100945.91
2022-12-15T18:46:48.700Z,100952.84
2022-12-15T18:49:17.986Z,100946.47
2022-12-15T18:51:46.325Z,100951.81
2022-12-15T18:54:22.819Z,100946.25
2022-12-15T18:56:50.300Z,100948.59
2022-12-15T18:59:19.001Z,100944.81
2022-12-15T19:01:47.400Z,100957.09
2022-12-15T19:04:14.832Z,100965.84
2022-12-15T19:06:41.619Z,100962.38
2022-12-15T19:09:15.726Z,100962.66
2022-12-15T19:12:03.593Z,100953.00
2022-12-15T19:14:42.922Z,100966.28
2022-12-15T19:17:42.247Z,100967.38
2022-12-15T19:20:38.341Z,100969.75
2022-12-15T19:23:06.701Z,100976.66
2022-12-15T19:25:33.442Z,100977.72
2022-12-15T19:28:03.841Z,100965.19
2022-12-15T19:30:37.097Z,100975.91
2022-12-15T19:33:07.468Z,100976.72
2022-12-15T19:35:34.196Z,100978.03
2022-12-15T19:38:02.445Z,100978.38
2022-12-15T19:40:32.853Z,100972.00
2022-12-15T19:43:00.317Z,100973.31
2022-12-15T19:45:29.687Z,100968.78
2022-12-15T19:47:56.851Z,100976.50
2022-12-15T19:54:04.219Z,100982.41
2022-12-15T19:56:31.090Z,100976.22
2022-12-15T19:58:57.654Z,100972.25
2022-12-15T20:01:24.362Z,100979.19
2022-12-15T20:03:53.107Z,100982.09
2022-12-15T20:06:25.525Z,100990.03
2022-12-15T20:08:54.923Z,100985.31
2022-12-15T20:11:30.508Z,100986.16
2022-12-15T20:13:57.855Z,100986.44
2022-12-15T20:16:24.849Z,100981.56
2022-12-15T20:18:54.639Z,100981.50
2022-12-15T20:21:26.975Z,100985.25
2022-12-15T20:23:57.477Z,100978.03
2022-12-15T20:26:24.771Z,100991.91
2022-12-15T20:28:52.923Z,100988.53
2022-12-15T20:31:22.320Z,100994.44
2022-12-15T20:33:50.044Z,100996.28
2022-12-15T20:36:24.113Z,100993.31
2022-12-15T20:38:52.498Z,100994.84
2022-12-15T20:41:26.197Z,100999.41
2022-12-15T20:43:54.616Z,101001.53
2022-12-15T20:46:26.926Z,100988.44
2022-12-15T20:48:55.092Z,100995.41
2022-12-15T20:51:25.799Z,100994.06
2022-12-15T20:53:54.013Z,100997.53
2022-12-15T20:56:23.129Z,100997.25
2022-12-15T20:58:50.946Z,100996.22
2022-12-15T21:01:22.560Z,101004.28
2022-12-15T21:03:51.981Z,100998.91
2022-12-15T21:06:18.941Z,100996.22
2022-12-15T21:08:45.771Z,100989.25
2022-12-15T21:11:24.492Z,100987.47
2022-12-15T21:13:53.495Z,100991.78
2022-12-15T21:16:23.283Z,100997.91
2022-12-15T21:19:19.076Z,100997.09
2022-12-15T21:21:40.912Z,100994.44
2022-12-15T21:24:14.071Z,100989.69
2022-12-15T21:26:40.543Z,100994.22
2022-12-15T21:29:13.336Z,101003.50
2022-12-15T21:31:39.891Z,100999.22
2022-12-15T21:34:06.295Z,101004.56
2022-12-15T21:36:32.891Z,100998.38
2022-12-15T21:38:59.412Z,100996.50
2022-12-15T21:41:25.885Z,100996.56
2022-12-15T21:43:52.683Z,100999.22
2022-12-15T21:46:28.725Z,101002.97
2022-12-15T21:49:14.461Z,101015.69
2022-12-15T21:51:47.105Z,101004.22
2022-12-15T21:54:28.847Z,101002.56
2022-12-15T21:56:58.004Z,101004.16
2022-12-15T21:59:27.940Z,101002.22
2022-12-15T22:01:55.997Z,101001.19
2022-12-15T22:04:31.662Z,101000.34
2022-12-15T22:06:58.128Z,101001.44
2022-12-15T22:09:24.774Z,101004.66
2022-12-15T22:11:54.001Z,101006.75
2022-12-15T22:14:33.701Z,100995.63
2022-12-15T22:17:15.781Z,100992.41
2022-12-15T22:19:42.260Z,100993.69
2022-12-15T22:22:08.817Z,100990.50
2022-12-15T22:24:35.370Z,100997.16
2022-12-15T22:27:01.857Z,100988.28
2022-12-15T22:29:29.961Z,100985.63
2022-12-15T22:31:56.361Z,100983.22
2022-12-15T22:34:26.111Z,100984.31
2022-12-15T22:36:52.619Z,100992.88
2022-12-15T22:39:21.451Z,100987.84
2022-12-15T22:41:50.683Z,100992.19
2022-12-15T22:44:26.479Z,100981.56
2022-12-15T22:46:55.438Z,100982.09
2022-12-15T22:49:26.311Z,100984.25
2022-12-15T22:51:52.808Z,100994.63
2022-12-15T22:54:23.940Z,100993.03
2022-12-15T22:56:55.631Z,100998.38
2022-12-15T22:59:37.940Z,100997.56
2022-12-15T23:02:05.088Z,100990.66
2022-12-15T23:04:31.930Z,101001.31
2022-12-15T23:07:00.057Z,100983.97
2022-12-15T23:09:26.528Z,100990.38
2022-12-15T23:11:53.020Z,100986.56
2022-12-15T23:14:41.519Z,100986.09
2022-12-15T23:17:08.291Z,100985.31
2022-12-15T23:19:34.771Z,100986.34
2022-12-15T23:22:01.191Z,100989.56
2022-12-15T23:24:27.885Z,100994.34
2022-12-15T23:26:54.348Z,100995.69
2022-12-15T23:29:21.441Z,100990.06
2022-12-15T23:31:47.892Z,100994.28
2022-12-15T23:34:14.329Z,100991.91
2022-12-15T23:36:40.770Z,100988.50
2022-12-15T23:39:07.180Z,101004.28
2022-12-15T23:41:35.177Z,101005.41
2022-12-15T23:44:01.588Z,101002.50
2022-12-15T23:46:28.173Z,101003.59
2022-12-15T23:48:55.085Z,101014.81
2022-12-15T23:51:21.580Z,101012.41
2022-12-15T23:53:48.308Z,101007.06
2022-12-15T23:56:23.248Z,101004.09
2022-12-15T23:58:58.378Z,101010.50
